Time;durP1;ratioP1;P1;durP2;ratioP2;P2;SDS_P1;SDS_P2;PMS_P1;PMS_P2;Temp;Humidity;BMP_temperature;BMP_pressure;BME280_temperature;BME280_humidity;BME280_pressure;Samples;Min_cycle;Max_cycle;Signal;HPM_P1;HPM_P2
2022/02/24 00:00:21;;;;;;;1.25;0.80;;;20.30;38.20;;;;;;5114544;28;20518;-73
2022/02/24 00:02:47;;;;;;;1.17;0.77;;;20.30;38.30;;;;;;5096278;28;20450;-73
2022/02/24 00:05:13;;;;;;;1.77;0.70;;;20.30;38.20;;;;;;5114747;28;20059;-73
2022/02/24 00:07:39;;;;;;;2.83;1.20;;;20.30;38.30;;;;;;5114447;28;20048;-73
2022/02/24 00:10:08;;;;;;;1.45;1.00;;;20.30;38.20;;;;;;5114259;28;20073;-73
2022/02/24 00:12:36;;;;;;;1.60;1.00;;;20.30;38.20;;;;;;5114486;28;20178;-74
2022/02/24 00:15:02;;;;;;;2.35;0.82;;;20.30;38.20;;;;;;5114472;28;20051;-73
2022/02/24 00:17:28;;;;;;;2.10;0.80;;;20.30;38.20;;;;;;5114306;28;20055;-73
2022/02/24 00:19:54;;;;;;;0.98;0.80;;;20.30;38.20;;;;;;5114056;28;20047;-73
2022/02/24 00:22:19;;;;;;;1.42;0.80;;;20.30;38.20;;;;;;5114339;28;20463;-73
2022/02/24 00:24:45;;;;;;;1.02;0.80;;;20.30;38.20;;;;;;5114464;28;20487;-73
2022/02/24 00:27:11;;;;;;;0.73;0.70;;;20.30;38.30;;;;;;5114131;28;20138;-73
2022/02/24 00:29:37;;;;;;;1.15;0.90;;;20.30;38.30;;;;;;5113947;28;20083;-73
2022/02/24 00:32:03;;;;;;;2.08;0.70;;;20.30;38.20;;;;;;5114000;28;20051;-73
2022/02/24 00:34:28;;;;;;;0.85;0.65;;;20.30;38.20;;;;;;5114056;28;20051;-73
2022/02/24 00:36:54;;;;;;;0.90;0.60;;;20.30;38.30;;;;;;5114051;28;20407;-73
2022/02/24 00:39:21;;;;;;;2.63;1.15;;;20.30;38.20;;;;;;5113931;28;20104;-74
2022/02/24 00:41:48;;;;;;;1.30;0.88;;;20.30;38.30;;;;;;5113935;28;20050;-73
2022/02/24 00:44:14;;;;;;;1.00;0.80;;;20.30;38.20;;;;;;5114167;28;20068;-73
2022/02/24 00:46:40;;;;;;;1.48;0.90;;;20.30;38.30;;;;;;5113888;28;20067;-73
2022/02/24 00:49:07;;;;;;;0.98;0.88;;;20.30;38.20;;;;;;5110728;28;20553;-74
2022/02/24 00:51:34;;;;;;;1.50;0.88;;;20.30;38.20;;;;;;5113755;28;20532;-73
2022/02/24 00:53:59;;;;;;;1.75;0.82;;;20.30;38.30;;;;;;5113762;28;20069;-73
2022/02/24 00:56:25;;;;;;;1.10;0.90;;;20.30;38.30;;;;;;5113619;28;20134;-73
2022/02/24 00:58:51;;;;;;;0.80;0.70;;;20.30;38.30;;;;;;5112647;28;20104;-73
2022/02/24 01:01:17;;;;;;;1.27;0.80;;;20.30;38.30;;;;;;5112200;28;20055;-73
2022/02/24 01:03:42;;;;;;;2.15;0.90;;;20.30;38.30;;;;;;5113323;28;20078;-73
2022/02/24 01:06:08;;;;;;;0.80;0.70;;;20.20;38.30;;;;;;5113518;28;20056;-74
2022/02/24 01:08:33;;;;;;;1.80;0.80;;;20.20;38.20;;;;;;5113257;28;20495;-74
2022/02/24 01:10:59;;;;;;;2.05;1.17;;;20.20;38.20;;;;;;5113448;28;20044;-74
2022/02/24 01:13:25;;;;;;;2.05;0.95;;;20.20;38.20;;;;;;5095093;28;20051;-74
2022/02/24 01:15:50;;;;;;;1.13;0.85;;;20.30;38.30;;;;;;5113462;28;20086;-74
2022/02/24 01:18:16;;;;;;;1.98;1.08;;;20.20;38.20;;;;;;5110569;28;20060;-73
2022/02/24 01:20:42;;;;;;;0.93;0.60;;;20.20;38.20;;;;;;5113311;28;20047;-73
2022/02/24 01:23:08;;;;;;;0.73;0.60;;;20.20;38.30;;;;;;5113348;28;20067;-74
2022/02/24 01:25:35;;;;;;;1.70;0.80;;;20.30;38.30;;;;;;5113277;28;20510;-73
2022/02/24 01:28:01;;;;;;;1.02;0.70;;;20.20;38.30;;;;;;5113023;28;20487;-73
2022/02/24 01:30:26;;;;;;;1.08;0.77;;;20.30;38.30;;;;;;5113428;28;20054;-73
2022/02/24 01:32:52;;;;;;;1.02;0.60;;;20.20;38.20;;;;;;5111904;28;20052;-73
2022/02/24 01:35:18;;;;;;;2.90;0.98;;;20.30;38.30;;;;;;5113193;28;20054;-73
2022/02/24 01:37:45;;;;;;;1.42;0.90;;;20.20;38.30;;;;;;5094800;28;20513;-73
2022/02/24 01:40:12;;;;;;;0.70;0.70;;;20.30;38.30;;;;;;5112994;28;20050;-74
2022/02/24 01:42:37;;;;;;;1.52;0.80;;;20.20;38.20;;;;;;5111648;28;20058;-74
2022/02/24 01:45:04;;;;;;;1.30;0.90;;;20.20;38.30;;;;;;5113061;28;20048;-73
2022/02/24 01:47:30;;;;;;;1.17;0.60;;;20.20;38.80;;;;;;5094801;28;20059;-73
2022/02/24 01:49:56;;;;;;;1.95;1.10;;;20.20;38.30;;;;;;5112769;28;20499;-73
2022/02/24 01:52:22;;;;;;;1.08;0.77;;;20.20;38.20;;;;;;5093561;28;20055;-74
2022/02/24 01:54:49;;;;;;;0.93;0.70;;;20.20;38.20;;;;;;5112890;28;20134;-74
2022/02/24 01:57:15;;;;;;;0.60;0.50;;;20.20;38.30;;;;;;5112820;28;20062;-74
2022/02/24 01:59:41;;;;;;;1.75;0.90;;;20.20;38.30;;;;;;5112857;28;20174;-74
2022/02/24 02:02:07;;;;;;;1.25;0.85;;;20.20;38.30;;;;;;5093216;28;20143;-73
2022/02/24 02:04:33;;;;;;;1.25;0.80;;;20.20;38.30;;;;;;5112852;28;20392;-74
2022/02/24 02:06:59;;;;;;;1.20;0.70;;;20.20;38.30;;;;;;5112751;28;20094;-73
2022/02/24 02:09:27;;;;;;;1.30;0.80;;;20.20;38.40;;;;;;5113231;28;20047;-73
2022/02/24 02:11:52;;;;;;;1.00;0.80;;;20.20;38.30;;;;;;5114121;28;20116;-73
2022/02/24 02:14:18;;;;;;;0.65;0.63;;;20.20;38.30;;;;;;5116593;28;20555;-73
2022/02/24 02:16:49;;;;;;;1.02;0.85;;;20.20;38.30;;;;;;5116147;28;20411;-73
2022/02/24 02:19:15;;;;;;;1.17;0.90;;;20.20;38.30;;;;;;5116190;28;20143;-74
2022/02/24 02:21:42;;;;;;;1.73;0.77;;;20.20;38.30;;;;;;5116146;28;20075;-73
2022/02/24 02:24:08;;;;;;;1.30;0.80;;;20.20;38.30;;;;;;5116452;28;20516;-73
2022/02/24 02:26:34;;;;;;;2.78;1.10;;;20.20;38.30;;;;;;5116473;28;20070;-73
2022/02/24 02:29:00;;;;;;;1.40;0.80;;;20.20;38.30;;;;;;5116121;28;20051;-73
2022/02/24 02:31:27;;;;;;;1.33;0.82;;;20.20;38.30;;;;;;5116227;28;20495;-73
2022/02/24 02:34:08;;;;;;;1.20;0.80;;;20.20;38.30;;;;;;5115995;28;20050;-73
2022/02/24 02:36:35;;;;;;;0.90;0.70;;;20.20;38.30;;;;;;5115965;28;20399;-73
2022/02/24 02:39:01;;;;;;;1.10;0.77;;;20.20;38.30;;;;;;5115913;28;20150;-73
2022/02/24 02:41:28;;;;;;;1.55;0.70;;;20.20;38.30;;;;;;5097534;28;20058;-73
2022/02/24 02:43:56;;;;;;;2.30;0.82;;;20.20;38.30;;;;;;5115739;28;20048;-73
2022/02/24 02:46:22;;;;;;;2.63;0.90;;;20.20;38.30;;;;;;5114417;28;20063;-73
2022/02/24 02:48:48;;;;;;;1.02;0.73;;;20.20;38.30;;;;;;5115617;28;20509;-73
2022/02/24 02:51:14;;;;;;;0.85;0.70;;;20.20;38.30;;;;;;5115601;28;20123;-73
2022/02/24 02:53:39;;;;;;;1.08;0.98;;;20.20;38.30;;;;;;5115397;28;20055;-73
2022/02/24 02:56:05;;;;;;;0.73;0.60;;;20.20;38.30;;;;;;5115586;28;20096;-73
2022/02/24 02:58:31;;;;;;;1.98;0.68;;;20.20;38.30;;;;;;5115185;28;20051;-73
2022/02/24 03:00:56;;;;;;;1.58;0.80;;;20.20;38.30;;;;;;5112480;28;20048;-73
2022/02/24 03:03:24;;;;;;;0.80;0.65;;;20.20;38.30;;;;;;5097271;28;20052;-73
2022/02/24 03:05:51;;;;;;;1.85;0.80;;;20.20;38.30;;;;;;5115699;28;20509;-73
2022/02/24 03:08:16;;;;;;;1.63;0.70;;;20.20;38.30;;;;;;5097011;28;20062;-73
2022/02/24 03:10:42;;;;;;;1.00;0.82;;;20.20;38.30;;;;;;5115272;28;20047;-74
2022/02/24 03:13:08;;;;;;;1.08;0.70;;;20.20;38.30;;;;;;5115270;28;20406;-74
2022/02/24 03:15:33;;;;;;;1.20;0.77;;;20.20;38.30;;;;;;5115408;28;20051;-73
2022/02/24 03:17:59;;;;;;;1.20;0.70;;;20.20;38.30;;;;;;5115364;28;20044;-74
2022/02/24 03:20:30;;;;;;;0.60;0.60;;;20.20;38.30;;;;;;5115513;28;20055;-73
2022/02/24 03:22:57;;;;;;;0.68;0.68;;;20.20;38.30;;;;;;5112846;28;20538;-73
2022/02/24 03:25:22;;;;;;;1.00;0.77;;;20.20;38.30;;;;;;5115184;28;20051;-74
2022/02/24 03:27:48;;;;;;;0.80;0.60;;;20.20;38.20;;;;;;5095330;28;20450;-74
2022/02/24 03:30:13;;;;;;;0.85;0.50;;;20.20;38.20;;;;;;5115004;28;20086;-74
2022/02/24 03:32:41;;;;;;;1.20;0.80;;;20.30;38.20;;;;;;5115086;28;20050;-74
2022/02/24 03:35:06;;;;;;;1.70;0.80;;;20.30;38.10;;;;;;5115046;28;20400;-74
2022/02/24 03:37:32;;;;;;;1.38;0.68;;;20.30;38.10;;;;;;5114890;28;20052;-74
2022/02/24 03:39:58;;;;;;;1.08;0.50;;;20.30;38.10;;;;;;5115249;28;20051;-73
2022/02/24 03:42:24;;;;;;;1.17;0.80;;;20.30;38.10;;;;;;5114197;28;20492;-74
2022/02/24 03:44:50;;;;;;;0.80;0.70;;;20.40;38.10;;;;;;5113581;28;20121;-73
2022/02/24 03:47:17;;;;;;;1.35;0.93;;;20.40;38.00;;;;;;5096494;28;20592;-74
2022/02/24 03:49:43;;;;;;;2.20;0.80;;;20.40;38.00;;;;;;5096283;28;20094;-74
2022/02/24 03:52:08;;;;;;;0.90;0.80;;;20.40;38.00;;;;;;5114686;28;20051;-74
2022/02/24 03:54:34;;;;;;;0.98;0.60;;;20.40;37.90;;;;;;5115087;28;20043;-73
2022/02/24 03:56:59;;;;;;;0.50;0.50;;;20.50;38.00;;;;;;5114603;28;20483;-73
2022/02/24 03:59:26;;;;;;;1.48;0.52;;;20.50;37.90;;;;;;5114641;28;20043;-74
2022/02/24 04:01:51;;;;;;;0.60;0.57;;;20.50;37.90;;;;;;5114823;28;20132;-73
2022/02/24 04:04:17;;;;;;;0.98;0.60;;;20.50;37.80;;;;;;5096214;28;20134;-74
2022/02/24 04:06:42;;;;;;;0.95;0.70;;;20.60;37.80;;;;;;5096453;28;20083;-74
2022/02/24 04:09:08;;;;;;;0.95;0.63;;;20.60;37.80;;;;;;5114456;28;20064;-73
2022/02/24 04:11:35;;;;;;;0.80;0.63;;;20.60;37.70;;;;;;5114340;28;20048;-73
2022/02/24 04:14:01;;;;;;;0.70;0.57;;;20.60;37.70;;;;;;5114394;28;20058;-73
2022/02/24 04:16:26;;;;;;;0.73;0.70;;;20.60;37.70;;;;;;5095947;28;20059;-74
2022/02/24 04:18:52;;;;;;;1.35;0.80;;;20.60;37.60;;;;;;5113996;28;20139;-74
2022/02/24 04:21:19;;;;;;;1.30;0.63;;;20.70;37.70;;;;;;5114371;28;20376;-73
2022/02/24 04:23:44;;;;;;;0.95;0.68;;;20.70;37.70;;;;;;5113999;28;20136;-74
2022/02/24 04:26:10;;;;;;;0.50;0.50;;;20.70;37.60;;;;;;5112950;28;20093;-73
2022/02/24 04:28:35;;;;;;;0.50;0.50;;;20.70;37.60;;;;;;5095500;28;20067;-73
2022/02/24 04:31:01;;;;;;;1.05;0.60;;;20.70;37.50;;;;;;5112996;28;20384;-73
2022/02/24 04:33:26;;;;;;;0.98;0.60;;;20.80;37.60;;;;;;5114109;28;20074;-73
2022/02/24 04:35:52;;;;;;;0.73;0.70;;;20.80;37.60;;;;;;5095280;28;20048;-74
2022/02/24 04:38:17;;;;;;;0.70;0.60;;;20.80;37.50;;;;;;5114305;28;20043;-73
2022/02/24 04:40:43;;;;;;;0.85;0.70;;;20.80;37.50;;;;;;5114256;28;20547;-73
2022/02/24 04:43:08;;;;;;;0.75;0.70;;;20.80;37.50;;;;;;5113881;28;20051;-73
2022/02/24 04:45:34;;;;;;;1.15;0.70;;;20.80;37.50;;;;;;5114225;28;20055;-73
2022/02/24 04:48:00;;;;;;;0.85;0.68;;;20.90;37.50;;;;;;5113883;28;20055;-73
2022/02/24 04:50:25;;;;;;;0.70;0.60;;;20.90;37.50;;;;;;5095656;28;20158;-73
2022/02/24 04:52:51;;;;;;;1.05;0.80;;;20.90;37.50;;;;;;5114054;28;20132;-74
2022/02/24 04:55:16;;;;;;;1.00;0.70;;;20.80;37.40;;;;;;5113679;28;20055;-74
2022/02/24 04:57:42;;;;;;;0.40;0.40;;;20.80;37.40;;;;;;5113764;28;20056;-73
2022/02/24 05:00:08;;;;;;;1.30;0.77;;;20.90;37.50;;;;;;5113666;28;20039;-73
2022/02/24 05:02:34;;;;;;;0.77;0.63;;;20.80;37.40;;;;;;5113616;28;20040;-73
2022/02/24 05:04:59;;;;;;;0.95;0.60;;;20.90;37.40;;;;;;5114085;28;20154;-73
2022/02/24 05:07:25;;;;;;;0.60;0.50;;;20.90;37.50;;;;;;5113469;28;20109;-73
2022/02/24 05:09:50;;;;;;;0.60;0.60;;;20.90;37.50;;;;;;5094991;28;20051;-74
2022/02/24 05:12:16;;;;;;;0.90;0.60;;;20.90;37.50;;;;;;5095230;28;20051;-73
2022/02/24 05:14:41;;;;;;;0.60;0.60;;;20.80;37.40;;;;;;5113392;28;20079;-73
2022/02/24 05:17:07;;;;;;;1.10;0.73;;;20.90;37.50;;;;;;5113575;28;20055;-73
2022/02/24 05:19:33;;;;;;;1.20;0.80;;;20.80;37.40;;;;;;5094963;28;20048;-73
2022/02/24 05:21:58;;;;;;;1.15;0.70;;;20.90;37.50;;;;;;5113324;28;20047;-73
2022/02/24 05:24:24;;;;;;;0.68;0.60;;;20.90;37.50;;;;;;5094917;28;20100;-74
2022/02/24 05:26:50;;;;;;;0.63;0.63;;;20.80;37.40;;;;;;5113554;28;20063;-74
2022/02/24 05:29:15;;;;;;;0.90;0.80;;;20.80;37.50;;;;;;5113041;28;20055;-73
2022/02/24 05:31:41;;;;;;;1.33;0.60;;;20.80;37.40;;;;;;5113008;28;20075;-73
2022/02/24 05:34:06;;;;;;;0.60;0.60;;;20.80;37.40;;;;;;5113170;28;20055;-73
2022/02/24 05:36:33;;;;;;;0.70;0.70;;;20.80;37.40;;;;;;5113456;28;20047;-73
2022/02/24 05:38:58;;;;;;;0.52;0.52;;;20.80;37.40;;;;;;5112976;28;20043;-73
2022/02/24 05:41:25;;;;;;;0.50;0.50;;;20.90;37.50;;;;;;5112988;28;20108;-73
2022/02/24 05:43:51;;;;;;;1.00;0.60;;;20.80;37.50;;;;;;5113334;28;20051;-73
2022/02/24 05:46:18;;;;;;;0.88;0.50;;;20.80;37.50;;;;;;5112272;28;20052;-73
2022/02/24 05:48:44;;;;;;;1.08;0.60;;;20.80;37.50;;;;;;5112657;28;20059;-74
2022/02/24 05:51:11;;;;;;;0.70;0.60;;;20.80;37.50;;;;;;5076673;28;20048;-73
2022/02/24 05:53:37;;;;;;;0.70;0.50;;;20.80;37.50;;;;;;5113087;28;20116;-73
2022/02/24 05:56:02;;;;;;;0.70;0.60;;;20.80;37.50;;;;;;5112915;28;20138;-74
2022/02/24 05:58:28;;;;;;;0.57;0.50;;;20.80;37.50;;;;;;5112577;28;20559;-73
2022/02/24 06:00:53;;;;;;;0.85;0.70;;;20.80;37.50;;;;;;5112857;28;20074;-73
2022/02/24 06:03:19;;;;;;;0.60;0.50;;;20.80;37.50;;;;;;5112712;28;20109;-73
2022/02/24 06:05:46;;;;;;;0.60;0.60;;;20.80;37.50;;;;;;5112702;28;20109;-74
2022/02/24 06:08:11;;;;;;;0.80;0.60;;;20.80;37.50;;;;;;5112795;28;20087;-73
2022/02/24 06:10:37;;;;;;;0.55;0.50;;;20.80;37.50;;;;;;5112953;28;20450;-73
2022/02/24 06:13:02;;;;;;;1.05;0.77;;;20.80;37.50;;;;;;5112628;28;20060;-73
2022/02/24 06:15:28;;;;;;;1.08;0.63;;;20.80;37.50;;;;;;5112691;28;20130;-73
2022/02/24 06:17:54;;;;;;;0.63;0.57;;;20.80;37.50;;;;;;5075180;28;20055;-73
2022/02/24 06:20:19;;;;;;;1.23;0.88;;;20.80;37.50;;;;;;5112897;28;20047;-73
2022/02/24 06:22:49;;;;;;;0.60;0.60;;;20.80;37.50;;;;;;5112522;28;20051;-73
2022/02/24 06:25:14;;;;;;;0.85;0.60;;;20.80;37.50;;;;;;5111555;28;20507;-74
2022/02/24 06:27:40;;;;;;;0.95;0.60;;;20.80;37.50;;;;;;5112588;28;20142;-74
2022/02/24 06:30:06;;;;;;;0.60;0.60;;;20.80;37.50;;;;;;5112256;28;20488;-74
2022/02/24 06:32:31;;;;;;;0.60;0.60;;;20.80;37.40;;;;;;5094038;28;20082;-73
2022/02/24 06:34:57;;;;;;;0.93;0.60;;;20.80;37.50;;;;;;5112481;28;20079;-74
2022/02/24 06:37:23;;;;;;;0.63;0.63;;;20.80;37.40;;;;;;5112361;28;20044;-74
2022/02/24 06:39:49;;;;;;;1.27;0.70;;;20.80;37.40;;;;;;5112141;28;20537;-73
2022/02/24 06:42:15;;;;;;;1.13;0.80;;;20.80;37.40;;;;;;5112334;28;20142;-73
2022/02/24 06:44:41;;;;;;;0.68;0.60;;;20.80;37.40;;;;;;5112100;28;20440;-73
2022/02/24 06:47:07;;;;;;;1.70;0.60;;;20.80;37.40;;;;;;5112155;28;20128;-74
2022/02/24 06:49:33;;;;;;;0.60;0.60;;;20.80;37.40;;;;;;5112195;28;20126;-74
2022/02/24 06:51:59;;;;;;;0.70;0.68;;;20.80;37.40;;;;;;5093892;28;20212;-73
2022/02/24 06:54:25;;;;;;;0.68;0.65;;;20.80;37.40;;;;;;5093980;28;20140;-74
2022/02/24 06:56:51;;;;;;;1.23;0.60;;;20.90;37.50;;;;;;5111970;28;20089;-73
2022/02/24 06:59:16;;;;;;;0.70;0.50;;;20.80;37.40;;;;;;5096201;28;20048;-73
2022/02/24 07:01:43;;;;;;;0.85;0.70;;;20.80;37.40;;;;;;5114139;28;20075;-74
2022/02/24 07:04:08;;;;;;;1.52;0.68;;;20.90;37.40;;;;;;5097043;28;20070;-73
2022/02/24 07:06:34;;;;;;;1.02;0.80;;;20.90;37.40;;;;;;5095747;28;20044;-74
2022/02/24 07:09:00;;;;;;;0.75;0.60;;;20.90;37.40;;;;;;5115326;28;20086;-73
2022/02/24 07:11:27;;;;;;;0.60;0.60;;;20.90;37.40;;;;;;5115470;28;20064;-73
2022/02/24 07:13:52;;;;;;;0.80;0.65;;;20.90;37.40;;;;;;5097009;28;20495;-74
2022/02/24 07:16:20;;;;;;;0.80;0.57;;;20.90;37.30;;;;;;5094880;28;20135;-73
2022/02/24 07:18:46;;;;;;;0.90;0.60;;;20.90;37.30;;;;;;5114751;28;20056;-73
2022/02/24 07:21:12;;;;;;;0.65;0.60;;;20.90;37.30;;;;;;5114985;28;20614;-74
2022/02/24 07:23:37;;;;;;;1.08;0.70;;;20.90;37.30;;;;;;5095329;28;20090;-74
2022/02/24 07:26:03;;;;;;;0.63;0.63;;;20.90;37.30;;;;;;5114838;28;20056;-74
2022/02/24 07:28:28;;;;;;;1.08;0.65;;;20.90;37.30;;;;;;5112839;28;20087;-73
2022/02/24 07:30:54;;;;;;;0.68;0.60;;;20.90;37.30;;;;;;5096427;28;20039;-73
2022/02/24 07:33:19;;;;;;;1.58;0.80;;;20.90;37.20;;;;;;5114916;28;20062;-73
2022/02/24 07:35:45;;;;;;;0.77;0.70;;;21.00;37.30;;;;;;5114831;28;20066;-73
2022/02/24 07:38:11;;;;;;;0.85;0.55;;;21.00;37.30;;;;;;5113777;28;20044;-73
2022/02/24 07:40:36;;;;;;;1.27;0.60;;;20.90;37.30;;;;;;5114833;28;20052;-74
2022/02/24 07:43:02;;;;;;;0.40;0.40;;;21.00;37.30;;;;;;5115008;28;20420;-74
2022/02/24 07:45:27;;;;;;;0.57;0.55;;;20.90;37.20;;;;;;5114972;28;20047;-76
2022/02/24 07:47:54;;;;;;;6.90;1.00;;;21.00;37.30;;;;;;5114848;28;20518;-74
2022/02/24 07:50:19;;;;;;;5.35;0.90;;;21.00;37.30;;;;;;5114552;28;20044;-74
2022/02/24 07:52:46;;;;;;;3.42;0.90;;;21.00;37.20;;;;;;5096419;28;20384;-74
2022/02/24 07:55:13;;;;;;;2.88;0.80;;;21.00;37.20;;;;;;5114715;28;20055;-74
2022/02/24 07:57:40;;;;;;;3.30;0.93;;;21.00;37.70;;;;;;5114575;28;20073;-74
2022/02/24 08:00:07;;;;;;;6.05;0.90;;;21.00;37.20;;;;;;5114516;28;20047;-74
2022/02/24 08:02:33;;;;;;;9.65;1.13;;;21.00;37.20;;;;;;5114716;28;20083;-74
2022/02/24 08:04:59;;;;;;;9.77;1.77;;;21.00;37.10;;;;;;5114603;28;20058;-74
2022/02/24 08:07:25;;;;;;;6.72;1.02;;;21.00;37.10;;;;;;5112969;28;20056;-74
2022/02/24 08:09:50;;;;;;;3.83;0.90;;;21.00;37.10;;;;;;5113722;28;20058;-74
2022/02/24 08:15:00;;;;;;;2.70;0.98;;;21.00;37.10;;;;;;5114518;28;20047;-74
2022/02/24 08:17:26;;;;;;;3.88;0.75;;;21.00;37.10;;;;;;5114122;28;20131;-74
2022/02/24 08:19:51;;;;;;;10.75;0.90;;;21.00;37.10;;;;;;5112536;28;20561;-75
2022/02/24 08:22:17;;;;;;;0.88;0.68;;;21.10;37.20;;;;;;5112846;28;20051;-74
2022/02/24 08:24:43;;;;;;;4.93;0.90;;;21.00;37.10;;;;;;5112607;28;20051;-74
2022/02/24 08:27:09;;;;;;;4.60;0.90;;;21.10;37.10;;;;;;5095677;28;20071;-74
2022/02/24 08:29:34;;;;;;;3.00;0.88;;;21.00;37.10;;;;;;5113824;28;20104;-74
2022/02/24 08:32:00;;;;;;;2.55;0.70;;;21.10;37.10;;;;;;5113850;28;20116;-74
2022/02/24 08:34:25;;;;;;;4.10;0.98;;;21.10;37.00;;;;;;5095517;28;20508;-74
2022/02/24 08:36:51;;;;;;;6.07;1.13;;;21.10;37.00;;;;;;5113930;28;20048;-74
2022/02/24 08:39:21;;;;;;;2.35;0.70;;;21.10;37.00;;;;;;5111252;28;20055;-74
2022/02/24 08:41:46;;;;;;;3.05;0.80;;;21.10;37.00;;;;;;5113855;28;20043;-74
2022/02/24 08:44:13;;;;;;;4.30;0.90;;;21.10;36.90;;;;;;5113542;28;20138;-74
2022/02/24 08:46:39;;;;;;;3.05;1.02;;;21.10;36.90;;;;;;5095473;28;20063;-74
2022/02/24 08:49:05;;;;;;;1.60;0.80;;;21.20;36.90;;;;;;5094400;28;20056;-74
2022/02/24 08:51:31;;;;;;;2.25;0.60;;;21.20;37.00;;;;;;5112458;28;20135;-75
2022/02/24 08:53:57;;;;;;;8.57;1.00;;;21.20;36.90;;;;;;5112146;28;20047;-74
2022/02/24 08:56:22;;;;;;;1.42;0.75;;;21.20;36.90;;;;;;5095024;28;20051;-73
2022/02/24 08:58:48;;;;;;;2.70;0.80;;;21.20;36.90;;;;;;5113109;28;20056;-73
2022/02/24 09:01:14;;;;;;;1.75;0.60;;;21.20;36.90;;;;;;5113340;28;20058;-73
2022/02/24 09:03:39;;;;;;;3.33;0.90;;;21.20;36.90;;;;;;5113037;28;20186;-73
2022/02/24 09:06:05;;;;;;;1.33;0.70;;;21.20;36.80;;;;;;5113214;28;20054;-73
2022/02/24 09:08:31;;;;;;;1.35;0.80;;;21.20;36.90;;;;;;5113154;28;20060;-73
2022/02/24 09:10:57;;;;;;;1.40;0.70;;;21.20;36.80;;;;;;5111806;28;20075;-73
2022/02/24 09:13:22;;;;;;;0.85;0.60;;;21.20;36.80;;;;;;5093760;28;20062;-73
2022/02/24 09:15:48;;;;;;;0.88;0.70;;;21.20;36.80;;;;;;5113615;28;20532;-73
2022/02/24 09:18:14;;;;;;;2.67;0.80;;;21.20;36.70;;;;;;5110753;28;20105;-73
2022/02/24 09:20:40;;;;;;;1.40;0.52;;;21.30;36.80;;;;;;5112279;28;20442;-73
2022/02/24 09:23:06;;;;;;;0.80;0.60;;;21.30;36.80;;;;;;5094476;28;20108;-73
2022/02/24 09:25:32;;;;;;;2.15;0.90;;;21.30;36.80;;;;;;5113466;28;20048;-73
2022/02/24 09:27:58;;;;;;;2.17;0.77;;;21.30;36.80;;;;;;5113217;28;20059;-73
2022/02/24 09:30:24;;;;;;;1.50;0.63;;;21.30;36.80;;;;;;5109987;28;20040;-73
2022/02/24 09:32:51;;;;;;;1.65;0.80;;;21.30;36.70;;;;;;5113273;28;20062;-73
2022/02/24 09:35:17;;;;;;;1.45;0.57;;;21.30;36.70;;;;;;5113008;28;20043;-73
2022/02/24 09:37:43;;;;;;;1.88;0.60;;;21.30;36.70;;;;;;5112779;28;20039;-73
2022/02/24 09:40:10;;;;;;;1.38;0.80;;;21.30;36.70;;;;;;5113350;28;20403;-73
2022/02/24 09:42:36;;;;;;;2.45;0.95;;;21.30;36.70;;;;;;5094470;28;20449;-73
2022/02/24 09:45:04;;;;;;;2.35;0.63;;;21.30;36.60;;;;;;5111400;28;20051;-73
2022/02/24 09:47:30;;;;;;;0.77;0.70;;;21.30;36.70;;;;;;5112430;28;20054;-73
2022/02/24 09:49:58;;;;;;;1.67;0.80;;;21.30;36.60;;;;;;5111442;28;20068;-73
2022/02/24 09:52:25;;;;;;;1.15;0.70;;;21.40;36.70;;;;;;5112697;28;20047;-73
2022/02/24 09:54:51;;;;;;;1.30;0.70;;;21.40;36.60;;;;;;5112666;28;20077;-73
2022/02/24 09:57:16;;;;;;;2.38;0.77;;;21.40;36.60;;;;;;5094272;28;20475;-73
2022/02/24 09:59:42;;;;;;;1.98;0.75;;;21.40;36.60;;;;;;5112638;28;20052;-73
2022/02/24 10:02:10;;;;;;;1.23;0.80;;;21.40;36.50;;;;;;5094223;28;20047;-73
2022/02/24 10:04:36;;;;;;;1.15;0.70;;;21.40;36.50;;;;;;5112516;28;20062;-73
2022/02/24 10:07:02;;;;;;;1.00;0.65;;;21.40;36.50;;;;;;5094163;28;20052;-73
2022/02/24 10:09:33;;;;;;;1.48;0.88;;;21.40;36.50;;;;;;5094558;28;20074;-72
2022/02/24 10:12:09;;;;;;;0.73;0.70;;;21.40;36.50;;;;;;5094350;28;20085;-72
2022/02/24 10:14:36;;;;;;;1.98;0.80;;;21.50;36.50;;;;;;5112214;28;20055;-72
2022/02/24 10:17:07;;;;;;;1.05;0.70;;;21.50;36.50;;;;;;5112294;28;20186;-73
2022/02/24 10:19:44;;;;;;;;;;;21.40;36.50;;;;;;5112765;28;20051;-73
2022/02/24 10:22:26;;;;;;;1.88;0.80;;;21.40;36.50;;;;;;5112649;28;19974;-73
2022/02/24 10:25:00;;;;;;;2.25;0.70;;;21.40;36.50;;;;;;5112541;28;20108;-73
2022/02/24 10:27:31;;;;;;;2.45;1.00;;;21.40;36.50;;;;;;5112433;28;20088;-72
2022/02/24 10:30:16;;;;;;;1.58;0.98;;;21.40;36.50;;;;;;5112266;28;20062;-73
2022/02/24 10:32:44;;;;;;;4.82;1.08;;;21.40;36.50;;;;;;5095170;28;20154;-72
2022/02/24 10:35:41;;;;;;;0.75;0.70;;;21.40;36.50;;;;;;5115712;28;20151;-73
2022/02/24 10:38:12;;;;;;;1.08;0.95;;;21.40;36.50;;;;;;5115677;28;20044;-73
2022/02/24 10:40:48;;;;;;;1.48;0.82;;;21.50;36.50;;;;;;5115739;28;20418;-72
2022/02/24 10:43:21;;;;;;;3.70;0.90;;;21.40;36.40;;;;;;5115672;28;20104;-73
2022/02/24 10:45:56;;;;;;;1.75;0.70;;;21.50;36.50;;;;;;5097567;28;20051;-73
2022/02/24 10:48:22;;;;;;;1.90;0.77;;;21.50;36.40;;;;;;5115777;28;20052;-73
2022/02/24 10:50:55;;;;;;;2.45;0.80;;;21.50;36.40;;;;;;5096999;28;20040;-73
2022/02/24 10:53:24;;;;;;;3.03;1.40;;;21.50;36.40;;;;;;5115442;28;20107;-73
2022/02/24 10:55:55;;;;;;;4.40;0.80;;;21.50;36.40;;;;;;5115275;28;20054;-73
2022/02/24 10:58:22;;;;;;;1.35;0.80;;;21.50;36.40;;;;;;5115569;28;20052;-73
2022/02/24 11:00:48;;;;;;;2.03;0.90;;;21.50;36.40;;;;;;5115497;28;20558;-73
2022/02/24 11:03:13;;;;;;;3.25;1.15;;;21.50;36.40;;;;;;5096887;28;20142;-73
2022/02/24 11:05:41;;;;;;;4.35;1.30;;;21.50;36.40;;;;;;5097060;28;20138;-73
2022/02/24 11:08:08;;;;;;;3.63;0.95;;;21.50;36.40;;;;;;5115610;28;20091;-73
2022/02/24 11:10:35;;;;;;;2.08;0.90;;;21.50;36.50;;;;;;5115135;28;20479;-73
2022/02/24 11:13:01;;;;;;;2.78;1.00;;;21.50;36.50;;;;;;5096891;28;20052;-73
2022/02/24 11:15:27;;;;;;;0.70;0.60;;;21.50;36.50;;;;;;5096949;28;20044;-73
2022/02/24 11:17:54;;;;;;;1.77;1.08;;;21.50;36.40;;;;;;5115093;28;20051;-73
2022/02/24 11:20:20;;;;;;;4.90;1.00;;;21.50;36.40;;;;;;5095091;28;20079;-72
2022/02/24 11:22:48;;;;;;;2.25;0.98;;;21.50;36.50;;;;;;5096707;28;20062;-73
2022/02/24 11:25:16;;;;;;;1.90;1.00;;;21.50;36.50;;;;;;5115274;28;20052;-73
2022/02/24 11:27:48;;;;;;;2.60;1.00;;;21.50;36.40;;;;;;5115118;28;20043;-72
2022/02/24 11:30:32;;;;;;;3.75;1.20;;;21.50;36.40;;;;;;5114872;28;20146;-73
2022/02/24 11:32:58;;;;;;;2.28;0.80;;;21.50;36.40;;;;;;5113481;28;20464;-73
2022/02/24 11:35:25;;;;;;;1.73;1.00;;;21.50;36.40;;;;;;5097174;28;20067;-72
2022/02/24 11:38:10;;;;;;;1.42;0.70;;;21.50;36.40;;;;;;5114656;28;20055;-73
2022/02/24 11:40:37;;;;;;;2.08;1.10;;;21.50;36.40;;;;;;5114648;28;20101;-73
2022/02/24 11:43:11;;;;;;;1.38;0.98;;;21.50;36.40;;;;;;5114736;28;20142;-73
2022/02/24 11:45:50;;;;;;;3.33;0.93;;;21.50;36.40;;;;;;5114504;28;20066;-73
2022/02/24 11:48:19;;;;;;;2.92;1.02;;;21.50;36.40;;;;;;5079176;28;20063;-72
2022/02/24 11:50:55;;;;;;;1.98;1.00;;;21.50;36.40;;;;;;5114589;28;20075;-73
2022/02/24 11:53:26;;;;;;;3.03;1.02;;;21.50;36.50;;;;;;5114694;28;20145;-73
2022/02/24 11:56:02;;;;;;;;;;;21.40;36.50;;;;;;5095208;28;20040;-73
2022/02/24 11:58:41;;;;;;;3.42;1.13;;;21.50;36.50;;;;;;5114330;28;19915;-72
2022/02/24 12:01:34;;;;;;;2.80;1.20;;;21.50;37.10;;;;;;5079473;28;20052;-72
2022/02/24 12:04:13;;;;;;;1.42;0.82;;;21.50;36.50;;;;;;5114475;28;20138;-73
2022/02/24 12:06:56;;;;;;;3.33;1.10;;;21.50;36.50;;;;;;5114724;28;20052;-72
2022/02/24 12:09:27;;;;;;;0.95;0.90;;;21.40;36.50;;;;;;5114618;28;20421;-72
2022/02/24 12:12:00;;;;;;;3.47;1.05;;;21.40;36.40;;;;;;5114319;28;20138;-73
2022/02/24 12:14:32;;;;;;;1.67;0.95;;;21.40;36.40;;;;;;5095999;28;20043;-73
2022/02/24 12:17:00;;;;;;;2.85;1.33;;;21.40;36.40;;;;;;5114595;28;20051;-72
2022/02/24 12:19:47;;;;;;;3.22;1.08;;;21.50;36.40;;;;;;5113986;28;20196;-72
2022/02/24 12:22:35;;;;;;;1.30;0.80;;;21.50;36.40;;;;;;5114169;28;20044;-72
2022/02/24 12:25:08;;;;;;;1.85;1.10;;;21.50;36.30;;;;;;5114168;28;20554;-73
2022/02/24 12:27:38;;;;;;;3.00;1.08;;;21.50;36.30;;;;;;5113735;28;20051;-73
2022/02/24 12:30:09;;;;;;;1.42;0.82;;;21.50;36.30;;;;;;5094636;28;20460;-73
2022/02/24 12:33:08;;;;;;;2.22;1.30;;;21.50;36.30;;;;;;5113960;28;20040;-73
2022/02/24 12:35:39;;;;;;;1.52;0.95;;;21.50;36.30;;;;;;5062108;28;20475;-73
2022/02/24 12:38:06;;;;;;;2.00;1.02;;;21.50;36.30;;;;;;5113832;28;20051;-72
2022/02/24 12:40:44;;;;;;;2.25;0.90;;;21.50;36.30;;;;;;5113913;28;20391;-72
2022/02/24 12:43:13;;;;;;;3.92;1.13;;;21.60;36.30;;;;;;5114138;28;20052;-72
2022/02/24 12:45:40;;;;;;;1.63;0.80;;;21.50;36.30;;;;;;5113824;28;20116;-72
2022/02/24 12:48:08;;;;;;;2.03;0.85;;;21.60;36.30;;;;;;5113632;28;20047;-73
2022/02/24 12:50:41;;;;;;;3.88;1.27;;;21.50;36.30;;;;;;5113609;28;20047;-73